Flight Track Log - Related Links

Times and Time Zones

All times are in EDT time to prevent confusion due to time zone crossing. See the AAL267 flight status page for this flight to view local times or setup timezone preferences in your user account.

Time Position Orientation Groundspeed Altitude Reporting Facility
EDT Latitude Longitude Course Direction KTS MPH feet Rate Location/Type
Tue 09:35:00 PM 33.9000 -118.7944 270° West  Level FlightAware Approximate
Tue 09:36:00 PM 33.8812 -118.9252 264° West  Level FlightAware Approximate
Tue 09:37:00 PM 33.8702 -119.0585 264° West  Level FlightAware Approximate
Tue 09:38:00 PM 33.8516 -119.1904 259° West  Level FlightAware Approximate
Tue 09:39:00 PM 33.8500 -119.3241 270° West  Level FlightAware Approximate
Tue 09:40:00 PM 33.8363 -119.4568 262° West  Level FlightAware Approximate
Tue 09:41:00 PM 33.8158 -119.5883 259° West  Level FlightAware Approximate
Tue 09:42:00 PM 33.7963 -119.7200 263° West  Level FlightAware Approximate
Tue 09:43:00 PM 33.7833 -119.8528 270° West  Level FlightAware Approximate
Tue 09:44:00 PM 33.7775 -119.9861 262° West  Level FlightAware Approximate
Tue 09:45:00 PM 33.7628 -120.1187 262° West  Level FlightAware Approximate
Tue 09:46:00 PM 33.7465 -120.2509 256° West  Level FlightAware Approximate
Tue 09:47:00 PM 33.7293 -120.3825 264° West  Level FlightAware Approximate
Tue 09:48:00 PM 33.7182 -120.5155 264° West  Level FlightAware Approximate
Tue 09:49:00 PM 33.7033 -120.6480 262° West  Level FlightAware Approximate
Tue 09:50:00 PM 33.6876 -120.7803 262° West  Level FlightAware Approximate
Tue 09:51:00 PM 33.6715 -120.9125 262° West  Level FlightAware Approximate
Tue 09:52:00 PM 33.6550 -121.0446 262° West  Level FlightAware Approximate
Tue 09:53:00 PM 33.6384 -121.1766 261° West  Level FlightAware Approximate
Tue 09:54:00 PM 33.6263 -121.3093 265° West  Level FlightAware Approximate
Tue 09:55:00 PM 33.6156 -121.4422 261° West  Level FlightAware Approximate
Tue 09:56:00 PM 33.5989 -121.5742 261° West  Level FlightAware Approximate
Tue 09:57:00 PM 33.5821 -121.7061 261° West  Level FlightAware Approximate
Tue 09:58:00 PM 33.5652 -121.8380 261° West  Level FlightAware Approximate
Tue 09:59:00 PM 33.5481 -121.9699 261° West  Level FlightAware Approximate
Tue 10:00:00 PM 33.5308 -122.1017 261° West  Level FlightAware Approximate
Tue 10:01:00 PM 33.5135 -122.2334 261° West  Level FlightAware Approximate
Tue 10:02:00 PM 33.4960 -122.3651 261° West  Level FlightAware Approximate
Tue 10:03:00 PM 33.4784 -122.4967 261° West  Level FlightAware Approximate
Tue 10:04:00 PM 33.4579 -122.6276 257° West  Level FlightAware Approximate
Tue 10:05:00 PM 33.4319 -122.7572 257° West  Level FlightAware Approximate
Tue 10:06:00 PM 33.4059 -122.8867 256° West  Level FlightAware Approximate
Tue 10:07:00 PM 33.3797 -123.0162 256° West  Level FlightAware Approximate
Tue 10:08:00 PM 33.3534 -123.1455 256° West  Level FlightAware Approximate
Tue 10:09:00 PM 33.3270 -123.2748 256° West  Level FlightAware Approximate
Tue 10:10:00 PM 33.3004 -123.4040 256° West  Level FlightAware Approximate
Tue 10:11:00 PM 33.2737 -123.5331 256° West  Level FlightAware Approximate
Tue 10:12:00 PM 33.2469 -123.6621 256° West  Level FlightAware Approximate
Tue 10:13:00 PM 33.2199 -123.7911 256° West  Level FlightAware Approximate
Tue 10:14:00 PM 33.1928 -123.9200 256° West  Level FlightAware Approximate
Tue 10:15:00 PM 33.1656 -124.0488 256° West  Level FlightAware Approximate
Tue 10:16:00 PM 33.1382 -124.1775 256° West  Level FlightAware Approximate
Tue 10:17:00 PM 33.1107 -124.3061 256° West  Level FlightAware Approximate
Tue 10:18:00 PM 33.0827 -124.4345 239° Southwest  Level FlightAware Approximate
Tue 10:19:00 PM 33.0563 -124.5602 254° West  Level FlightAware Approximate
Tue 10:20:00 PM 33.0256 -124.6877 254° West  Level FlightAware Approximate
Tue 10:21:00 PM 32.9949 -124.8151 254° West  Level FlightAware Approximate
Tue 10:22:00 PM 32.9640 -124.9424 254° West  Level FlightAware Approximate
Tue 10:23:00 PM 32.9340 -125.0700 255° West  Level FlightAware Approximate
Tue 10:24:00 PM 32.9047 -125.1977 255° West  Level FlightAware Approximate
Tue 10:25:00 PM 32.8752 -125.3254 255° West  Level FlightAware Approximate
Tue 10:26:00 PM 32.8456 -125.4530 255° West  Level FlightAware Approximate
Tue 10:27:00 PM 32.8159 -125.5805 255° West  Level FlightAware Approximate
Tue 10:28:00 PM 32.7860 -125.7079 254° West  Level FlightAware Approximate
Tue 10:29:00 PM 32.7561 -125.8353 254° West  Level FlightAware Approximate
Tue 10:30:00 PM 32.7260 -125.9625 254° West  Level FlightAware Approximate
Tue 10:31:00 PM 32.6958 -126.0897 254° West  Level FlightAware Approximate
Tue 10:32:00 PM 32.6654 -126.2168 254° West  Level FlightAware Approximate
Tue 10:33:00 PM 32.6349 -126.3438 254° West  Level FlightAware Approximate
Tue 10:34:00 PM 32.6043 -126.4707 254° West  Level FlightAware Approximate
Tue 10:35:00 PM 32.5735 -126.5975 254° West  Level FlightAware Approximate
Tue 10:36:00 PM 32.5427 -126.7242 254° West  Level FlightAware Approximate
Tue 10:37:00 PM 32.5117 -126.8509 254° West  Level FlightAware Approximate
Tue 10:38:00 PM 32.4805 -126.9774 254° West  Level FlightAware Approximate
Tue 10:39:00 PM 32.4493 -127.1039 254° West  Level FlightAware Approximate
Tue 10:40:00 PM 32.4179 -127.2303 254° West  Level FlightAware Approximate
Tue 10:41:00 PM 32.3864 -127.3566 254° West  Level FlightAware Approximate
Tue 10:42:00 PM 32.3548 -127.4828 254° West  Level FlightAware Approximate
Tue 10:43:00 PM 32.3230 -127.6089 253° West  Level FlightAware Approximate
Tue 10:44:00 PM 32.2913 -127.7350 254° West  Level FlightAware Approximate
Tue 10:45:00 PM 32.2596 -127.8610 254° West  Level FlightAware Approximate
Tue 10:46:00 PM 32.2279 -127.9870 253° West  Level FlightAware Approximate
Tue 10:47:00 PM 32.1960 -128.1129 253° West  Level FlightAware Approximate
Tue 10:48:00 PM 32.1640 -128.2387 253° West  Level FlightAware Approximate
Tue 10:49:00 PM 32.1319 -128.3644 253° West  Level FlightAware Approximate
Tue 10:50:00 PM 32.0996 -128.4901 253° West  Level FlightAware Approximate
Tue 10:51:00 PM 32.0672 -128.6156 253° West  Level FlightAware Approximate
Tue 10:52:00 PM 32.0347 -128.7411 253° West  Level FlightAware Approximate
Tue 10:53:00 PM 32.0021 -128.8664 253° West  Level FlightAware Approximate
Tue 10:54:00 PM 31.9694 -128.9917 253° West  Level FlightAware Approximate
Tue 10:55:00 PM 31.9365 -129.1169 253° West  Level FlightAware Approximate
Tue 10:56:00 PM 31.9035 -129.2420 253° West  Level FlightAware Approximate
Tue 10:57:00 PM 31.8704 -129.3670 253° West  Level FlightAware Approximate
Tue 10:58:00 PM 31.8372 -129.4919 253° West  Level FlightAware Approximate
Tue 10:59:00 PM 31.8038 -129.6167 253° West  Level FlightAware Approximate
Tue 11:00:00 PM 31.7703 -129.7415 253° West  Level FlightAware Approximate
Tue 11:01:00 PM 31.7367 -129.8661 252° West  Level FlightAware Approximate
Tue 11:02:00 PM 31.7030 -129.9907 252° West  Level FlightAware Approximate
Tue 11:03:00 PM 31.6692 -130.1151 252° West  Level FlightAware Approximate
Tue 11:04:00 PM 31.6352 -130.2395 252° West  Level FlightAware Approximate
Tue 11:05:00 PM 31.6011 -130.3638 252° West  Level FlightAware Approximate
Tue 11:06:00 PM 31.5669 -130.4880 252° West  Level FlightAware Approximate
Tue 11:07:00 PM 31.5326 -130.6121 252° West  Level FlightAware Approximate
Tue 11:08:00 PM 31.4982 -130.7361 252° West  Level FlightAware Approximate
Tue 11:09:00 PM 31.4636 -130.8600 252° West  Level FlightAware Approximate
Tue 11:10:00 PM 31.4289 -130.9838 252° West  Level FlightAware Approximate
Tue 11:11:00 PM 31.3941 -131.1075 252° West  Level FlightAware Approximate
Tue 11:12:00 PM 31.3592 -131.2312 252° West  Level FlightAware Approximate
Tue 11:13:00 PM 31.3242 -131.3547 252° West  Level FlightAware Approximate
Tue 11:14:00 PM 31.2890 -131.4782 252° West  Level FlightAware Approximate
Tue 11:15:00 PM 31.2537 -131.6016 252° West  Level FlightAware Approximate
Tue 11:16:00 PM 31.2183 -131.7248 251° West  Level FlightAware Approximate
Tue 11:17:00 PM 31.1828 -131.8480 251° West  Level FlightAware Approximate
Tue 11:18:00 PM 31.1472 -131.9711 251° West  Level FlightAware Approximate
Tue 11:19:00 PM 31.1114 -132.0941 251° West  Level FlightAware Approximate
Tue 11:20:00 PM 31.0754 -132.2169 251° West  Level FlightAware Approximate
Tue 11:21:00 PM 31.0391 -132.3396 251° West  Level FlightAware Approximate
Tue 11:22:00 PM 31.0027 -132.4622 251° West  Level FlightAware Approximate
Tue 11:23:00 PM 30.9662 -132.5847 251° West  Level FlightAware Approximate
Tue 11:24:00 PM 30.9296 -132.7071 251° West  Level FlightAware Approximate
Tue 11:25:00 PM 30.8928 -132.8294 251° West  Level FlightAware Approximate
Tue 11:26:00 PM 30.8560 -132.9516 251° West  Level FlightAware Approximate
Tue 11:27:00 PM 30.8190 -133.0738 251° West  Level FlightAware Approximate
Tue 11:28:00 PM 30.7819 -133.1958 251° West  Level FlightAware Approximate
Tue 11:29:00 PM 30.7432 -133.3226 250° West  Level FlightAware Approximate
Tue 11:30:00 PM 30.7044 -133.4494 250° West  Level FlightAware Approximate
Tue 11:31:00 PM 30.6655 -133.5760 250° West  Level FlightAware Approximate
Tue 11:32:00 PM 30.6264 -133.7026 250° West  Level FlightAware Approximate
Tue 11:33:00 PM 30.5872 -133.8290 250° West  Level FlightAware Approximate
Tue 11:34:00 PM 30.5479 -133.9553 250° West  Level FlightAware Approximate
Tue 11:35:00 PM 30.5085 -134.0816 250° West  Level FlightAware Approximate
Tue 11:36:00 PM 30.4689 -134.2077 250° West  Level FlightAware Approximate
Tue 11:37:00 PM 30.4292 -134.3337 250° West  Level FlightAware Approximate
Tue 11:38:00 PM 30.3894 -134.4596 250° West  Level FlightAware Approximate
Tue 11:39:00 PM 30.3495 -134.5854 250° West  Level FlightAware Approximate
Tue 11:40:00 PM 30.3095 -134.7112 250° West  Level FlightAware Approximate
Tue 11:41:00 PM 30.2693 -134.8368 250° West  Level FlightAware Approximate
Tue 11:42:00 PM 30.2290 -134.9623 250° West  Level FlightAware Approximate
Tue 11:43:00 PM 30.1886 -135.0877 250° West  Level FlightAware Approximate
Tue 11:44:00 PM 30.1481 -135.2130 250° West  Level FlightAware Approximate
Tue 11:45:00 PM 30.1075 -135.3382 249° West  Level FlightAware Approximate
Tue 11:46:00 PM 30.0667 -135.4633 249° West  Level FlightAware Approximate
Tue 11:47:00 PM 30.0259 -135.5883 249° West  Level FlightAware Approximate
Tue 11:48:00 PM 29.9849 -135.7132 249° West  Level FlightAware Approximate
Tue 11:49:00 PM 29.9438 -135.8380 249° West  Level FlightAware Approximate
Tue 11:50:00 PM 29.9025 -135.9627 249° West  Level FlightAware Approximate
Tue 11:51:00 PM 29.8612 -136.0873 249° West  Level FlightAware Approximate
Tue 11:52:00 PM 29.8197 -136.2117 249° West  Level FlightAware Approximate
Tue 11:53:00 PM 29.7782 -136.3361 249° West  Level FlightAware Approximate
Tue 11:54:00 PM 29.7365 -136.4604 249° West  Level FlightAware Approximate
Tue 11:55:00 PM 29.6947 -136.5846 249° West  Level FlightAware Approximate
Tue 11:56:00 PM 29.6527 -136.7086 249° West  Level FlightAware Approximate
Tue 11:57:00 PM 29.6107 -136.8326 249° West  Level FlightAware Approximate
Tue 11:58:00 PM 29.5686 -136.9565 249° West  Level FlightAware Approximate
Tue 11:59:00 PM 29.5263 -137.0802 249° West  Level FlightAware Approximate
Wed 12:00:00 AM 29.4839 -137.2039 249° West  Level FlightAware Approximate
Wed 12:01:00 AM 29.4414 -137.3274 248° West  Level FlightAware Approximate
Wed 12:02:00 AM 29.3988 -137.4509 248° West  Level FlightAware Approximate
Wed 12:03:00 AM 29.3561 -137.5742 248° West  Level FlightAware Approximate
Wed 12:04:00 AM 29.3132 -137.6974 248° West  Level FlightAware Approximate
Wed 12:05:00 AM 29.2703 -137.8206 248° West  Level FlightAware Approximate
Wed 12:06:00 AM 29.2272 -137.9436 248° West  Level FlightAware Approximate
Wed 12:07:00 AM 29.1840 -138.0665 248° West  Level FlightAware Approximate
Wed 12:08:00 AM 29.1407 -138.1893 248° West  Level FlightAware Approximate
Wed 12:09:00 AM 29.0973 -138.3121 248° West  Level FlightAware Approximate
Wed 12:10:00 AM 29.0538 -138.4347 248° West  Level FlightAware Approximate
Wed 12:11:00 AM 29.0102 -138.5572 248° West  Level FlightAware Approximate
Wed 12:12:00 AM 28.9665 -138.6796 248° West  Level FlightAware Approximate
Wed 12:13:00 AM 28.9226 -138.8019 248° West  Level FlightAware Approximate
Wed 12:14:00 AM 28.8787 -138.9241 248° West  Level FlightAware Approximate
Wed 12:15:00 AM 28.8346 -139.0462 248° West  Level FlightAware Approximate
Wed 12:16:00 AM 28.7904 -139.1682 248° West  Level FlightAware Approximate
Wed 12:17:00 AM 28.7461 -139.2901 248° West  Level FlightAware Approximate
Wed 12:18:00 AM 28.7017 -139.4119 247° West  Level FlightAware Approximate
Wed 12:19:00 AM 28.6571 -139.5335 247° West  Level FlightAware Approximate
Wed 12:20:00 AM 28.6124 -139.6550 247° West  Level FlightAware Approximate
Wed 12:21:00 AM 28.5676 -139.7765 247° West  Level FlightAware Approximate
Wed 12:22:00 AM 28.5226 -139.8978 247° West  Level FlightAware Approximate
Wed 12:23:00 AM 28.4776 -140.0190 247° West  Level FlightAware Approximate
Wed 12:24:00 AM 28.4324 -140.1401 247° West  Level FlightAware Approximate
Wed 12:25:00 AM 28.3871 -140.2611 247° West  Level FlightAware Approximate
Wed 12:26:00 AM 28.3418 -140.3820 247° West  Level FlightAware Approximate
Wed 12:27:00 AM 28.2963 -140.5028 247° West  Level FlightAware Approximate
Wed 12:28:00 AM 28.2507 -140.6235 247° West  Level FlightAware Approximate
Wed 12:29:00 AM 28.2050 -140.7441 247° West  Level FlightAware Approximate
Wed 12:30:00 AM 28.1592 -140.8646 247° West  Level FlightAware Approximate
Wed 12:31:00 AM 28.1133 -140.9850 247° West  Level FlightAware Approximate
Wed 12:32:00 AM 28.0673 -141.1053 247° West  Level FlightAware Approximate
Wed 12:33:00 AM 28.0212 -141.2255 247° West  Level FlightAware Approximate
Wed 12:34:00 AM 27.9750 -141.3456 246° West  Level FlightAware Approximate
Wed 12:35:00 AM 27.9286 -141.4655 246° West  Level FlightAware Approximate
Wed 12:36:00 AM 27.8822 -141.5854 246° West  Level FlightAware Approximate
Wed 12:37:00 AM 27.8357 -141.7052 246° West  Level FlightAware Approximate
Wed 12:38:00 AM 27.7891 -141.8249 246° West  Level FlightAware Approximate
Wed 12:39:00 AM 27.7423 -141.9444 246° West  Level FlightAware Approximate
Wed 12:40:00 AM 27.6955 -142.0639 246° West  Level FlightAware Approximate
Wed 12:41:00 AM 27.6486 -142.1832 246° West  Level FlightAware Approximate
Wed 12:42:00 AM 27.6015 -142.3025 246° West  Level FlightAware Approximate
Wed 12:43:00 AM 27.5544 -142.4217 246° West  Level FlightAware Approximate
Wed 12:44:00 AM 27.5071 -142.5407 246° West  Level FlightAware Approximate
Wed 12:45:00 AM 27.4598 -142.6597 246° West  Level FlightAware Approximate
Wed 12:46:00 AM 27.4123 -142.7785 246° West  Level FlightAware Approximate
Wed 12:47:00 AM 27.3648 -142.8973 246° West  Level FlightAware Approximate
Wed 12:48:00 AM 27.3171 -143.0159 246° West  Level FlightAware Approximate
Wed 12:49:00 AM 27.2694 -143.1344 246° West  Level FlightAware Approximate
Wed 12:50:00 AM 27.2215 -143.2529 246° West  Level FlightAware Approximate
Wed 12:51:00 AM 27.1736 -143.3712 246° West  Level FlightAware Approximate
Wed 12:52:00 AM 27.1255 -143.4895 245° Southwest  Level FlightAware Approximate
Wed 12:53:00 AM 27.0774 -143.6076 245° Southwest  Level FlightAware Approximate
Wed 12:54:00 AM 27.0291 -143.7256 245° Southwest  Level FlightAware Approximate
Wed 12:55:00 AM 26.9808 -143.8436 245° Southwest  Level FlightAware Approximate
Wed 12:56:00 AM 26.9324 -143.9614 245° Southwest  Level FlightAware Approximate
Wed 12:57:00 AM 26.8838 -144.0791 245° Southwest  Level FlightAware Approximate
Wed 12:58:00 AM 26.8352 -144.1968 245° Southwest  Level FlightAware Approximate
Wed 12:59:00 AM 26.7864 -144.3143 245° Southwest  Level FlightAware Approximate
Wed 01:00:00 AM 26.7376 -144.4317 245° Southwest  Level FlightAware Approximate
Wed 01:01:00 AM 26.6887 -144.5491 245° Southwest  Level FlightAware Approximate
Wed 01:02:00 AM 26.6397 -144.6663 245° Southwest  Level FlightAware Approximate
Wed 01:03:00 AM 26.5905 -144.7834 245° Southwest  Level FlightAware Approximate
Wed 01:04:00 AM 26.5413 -144.9004 245° Southwest  Level FlightAware Approximate
Wed 01:05:00 AM 26.4920 -145.0173 245° Southwest  Level FlightAware Approximate
Wed 01:06:00 AM 26.4426 -145.1342 245° Southwest  Level FlightAware Approximate
Wed 01:07:00 AM 26.3931 -145.2509 245° Southwest  Level FlightAware Approximate
Wed 01:08:00 AM 26.3435 -145.3675 245° Southwest  Level FlightAware Approximate
Wed 01:09:00 AM 26.2938 -145.4840 245° Southwest  Level FlightAware Approximate
Wed 01:10:00 AM 26.2441 -145.6004 245° Southwest  Level FlightAware Approximate
Wed 01:11:00 AM 26.1942 -145.7168 244° Southwest  Level FlightAware Approximate
Wed 01:12:00 AM 26.1442 -145.8330 244° Southwest  Level FlightAware Approximate
Wed 01:13:00 AM 26.0942 -145.9491 244° Southwest  Level FlightAware Approximate
Wed 01:14:00 AM 26.0440 -146.0651 244° Southwest  Level FlightAware Approximate
Wed 01:15:00 AM 25.9937 -146.1811 244° Southwest  Level FlightAware Approximate
Wed 01:16:00 AM 25.9434 -146.2969 244° Southwest  Level FlightAware Approximate
Wed 01:17:00 AM 25.8930 -146.4126 244° Southwest  Level FlightAware Approximate
Wed 01:18:00 AM 25.8420 -146.5293 244° Southwest  Level FlightAware Approximate
Wed 01:19:00 AM 25.7909 -146.6459 244° Southwest  Level FlightAware Approximate
Wed 01:20:00 AM 25.7397 -146.7625 244° Southwest  Level FlightAware Approximate
Wed 01:21:00 AM 25.6884 -146.8789 244° Southwest  Level FlightAware Approximate
Wed 01:22:00 AM 25.6371 -146.9952 244° Southwest  Level FlightAware Approximate
Wed 01:23:00 AM 25.5856 -147.1114 244° Southwest  Level FlightAware Approximate
Wed 01:24:00 AM 25.5340 -147.2275 244° Southwest  Level FlightAware Approximate
Wed 01:25:00 AM 25.4824 -147.3435 244° Southwest  Level FlightAware Approximate
Wed 01:26:00 AM 25.4306 -147.4594 244° Southwest  Level FlightAware Approximate
Wed 01:27:00 AM 25.3788 -147.5752 244° Southwest  Level FlightAware Approximate
Wed 01:28:00 AM 25.3269 -147.6909 244° Southwest  Level FlightAware Approximate
Wed 01:29:00 AM 25.2749 -147.8065 244° Southwest  Level FlightAware Approximate
Wed 01:30:00 AM 25.2228 -147.9220 244° Southwest  Level FlightAware Approximate
Wed 01:31:00 AM 25.1706 -148.0375 243° Southwest  Level FlightAware Approximate
Wed 01:32:00 AM 25.1183 -148.1528 243° Southwest  Level FlightAware Approximate
Wed 01:33:00 AM 25.0659 -148.2680 243° Southwest  Level FlightAware Approximate
Wed 01:34:00 AM 25.0135 -148.3831 243° Southwest  Level FlightAware Approximate
Wed 01:35:00 AM 24.9609 -148.4981 243° Southwest  Level FlightAware Approximate
Wed 01:36:00 AM 24.9083 -148.6131 243° Southwest  Level FlightAware Approximate
Wed 01:37:00 AM 24.8556 -148.7279 243° Southwest  Level FlightAware Approximate
Wed 01:38:00 AM 24.8028 -148.8426 243° Southwest  Level FlightAware Approximate
Wed 01:39:00 AM 24.7499 -148.9572 243° Southwest  Level FlightAware Approximate
Wed 01:40:00 AM 24.6969 -149.0717 243° Southwest  Level FlightAware Approximate
Wed 01:41:00 AM 24.6438 -149.1862 243° Southwest  Level FlightAware Approximate
Wed 01:42:00 AM 24.5907 -149.3005 243° Southwest  Level FlightAware Approximate
Wed 01:43:00 AM 24.5374 -149.4147 243° Southwest  Level FlightAware Approximate
Wed 01:44:00 AM 24.4841 -149.5289 243° Southwest  Level FlightAware Approximate
Wed 01:45:00 AM 24.4307 -149.6429 243° Southwest  Level FlightAware Approximate
Wed 01:46:00 AM 24.3772 -149.7569 243° Southwest  Level FlightAware Approximate
Wed 01:47:00 AM 24.3236 -149.8707 243° Southwest  Level FlightAware Approximate
Wed 01:48:00 AM 24.2699 -149.9845 243° Southwest  Level FlightAware Approximate
Wed 01:49:00 AM 24.2162 -150.0981 243° Southwest  Level FlightAware Approximate
Wed 01:50:00 AM 24.1623 -150.2117 243° Southwest  Level FlightAware Approximate
Wed 01:51:00 AM 24.1084 -150.3252 243° Southwest  Level FlightAware Approximate
Wed 01:52:00 AM 24.0544 -150.4385 242° Southwest  Level FlightAware Approximate
Wed 01:53:00 AM 24.0003 -150.5518 242° Southwest  Level FlightAware Approximate
Wed 01:54:00 AM 23.9461 -150.6650 242° Southwest  Level FlightAware Approximate
Wed 01:55:00 AM 23.8919 -150.7781 242° Southwest  Level FlightAware Approximate
Wed 01:56:00 AM 23.8375 -150.8911 242° Southwest  Level FlightAware Approximate
Wed 01:57:00 AM 23.7831 -151.0040 242° Southwest  Level FlightAware Approximate
Wed 01:58:00 AM 23.7286 -151.1167 242° Southwest  Level FlightAware Approximate
Wed 01:59:00 AM 23.6740 -151.2295 242° Southwest  Level FlightAware Approximate
Wed 02:00:00 AM 23.6194 -151.3421 242° Southwest  Level FlightAware Approximate
Wed 02:01:00 AM 23.5646 -151.4546 242° Southwest  Level FlightAware Approximate
Wed 02:02:00 AM 23.5098 -151.5670 242° Southwest  Level FlightAware Approximate
Wed 02:03:00 AM 23.4549 -151.6793 242° Southwest  Level FlightAware Approximate
Wed 02:04:00 AM 23.3999 -151.7916 242° Southwest  Level FlightAware Approximate
Wed 02:05:00 AM 23.3448 -151.9037 242° Southwest  Level FlightAware Approximate
Wed 02:06:00 AM 23.2897 -152.0158 242° Southwest  Level FlightAware Approximate
Wed 02:07:00 AM 23.2344 -152.1277 242° Southwest  Level FlightAware Approximate
Wed 02:08:00 AM 23.1791 -152.2396 242° Southwest  Level FlightAware Approximate
Wed 02:09:00 AM 23.1238 -152.3514 242° Southwest  Level FlightAware Approximate
Wed 02:10:00 AM 23.0683 -152.4630 242° Southwest  Level FlightAware Approximate
Wed 02:11:00 AM 23.0127 -152.5746 241° Southwest  Level FlightAware Approximate
Wed 02:12:00 AM 22.9565 -152.6857 241° Southwest  Level FlightAware Approximate
Wed 02:12:46 AM 24.1833 -154.4167 241° Southwest 440 506 36,000  Level Honolulu Center
Wed 02:13:00 AM 22.9001 -152.7967 241° Southwest  Level FlightAware Approximate
Wed 02:13:47 AM 24.1000 -154.5167 228° Southwest 440 506 36,000  Level Honolulu Center
Wed 02:14:00 AM 22.8436 -152.9076 241° Southwest  Level FlightAware Approximate
Wed 02:14:47 AM 24.0167 -154.6167 228° Southwest 430 495 36,000  Level Honolulu Center
Wed 02:15:00 AM 22.7871 -153.0184 241° Southwest  Level FlightAware Approximate
Wed 02:15:47 AM 23.9333 -154.7000 222° Southwest 430 495 36,000  Level Honolulu Center
Wed 02:16:00 AM 22.7304 -153.1291 241° Southwest  Level FlightAware Approximate
Wed 02:16:48 AM 23.8500 -154.8000 228° Southwest 430 495 36,000  Level Honolulu Center
Wed 02:17:00 AM 22.6737 -153.2397 241° Southwest  Level FlightAware Approximate
Wed 02:17:48 AM 23.7667 -154.9000 228° Southwest 420 483 36,000  Level Honolulu Center
Wed 02:18:48 AM 23.6833 -154.9833 222° Southwest 430 495 36,000  Level Honolulu Center
Wed 02:19:49 AM 23.6000 -155.0833 228° Southwest 430 495 36,000  Level Honolulu Center
Wed 02:20:49 AM 23.5167 -155.1833 228° Southwest 420 483 36,000  Level Honolulu Center
Wed 02:21:50 AM 23.4333 -155.2667 223° Southwest 430 495 36,000  Level Honolulu Center
Wed 02:22:50 AM 23.3500 -155.3667 228° Southwest 430 495 36,000  Level Honolulu Center
Wed 02:23:50 AM 23.2667 -155.4500 223° Southwest 430 495 36,000  Level Honolulu Center
Wed 02:24:51 AM 23.1833 -155.5500 228° Southwest 430 495 36,000  Level Honolulu Center
Wed 02:25:51 AM 23.1000 -155.6500 228° Southwest 430 495 36,000  Level Honolulu Center
Wed 02:26:51 AM 23.0167 -155.7333 223° Southwest 430 495 36,000  Level Honolulu Center
Wed 02:27:52 AM 22.9333 -155.8333 228° Southwest 430 495 36,000  Level Honolulu Center
Wed 02:28:52 AM 22.8500 -155.9167 223° Southwest 430 495 36,000  Level Honolulu Center
Wed 02:29:52 AM 22.7667 -156.0167 228° Southwest 430 495 36,000  Level Honolulu Center
Wed 02:30:53 AM 22.6833 -156.1000 223° Southwest 430 495 36,000  Level Honolulu Center
Wed 02:31:53 AM 22.6000 -156.2000 228° Southwest 430 495 36,000  Level Honolulu Center
Wed 02:32:53 AM 22.5167 -156.2833 223° Southwest 430 495 36,000 -744 Level Honolulu Center
Wed 02:33:54 AM 22.4333 -156.3833 228° Southwest 430 495 34,500 -2,380 Descending Honolulu Center
Wed 02:34:54 AM 22.3500 -156.4833 228° Southwest 440 506 31,200 -2,727 Descending Honolulu Center
Wed 02:35:55 AM 22.2667 -156.5667 223° Southwest 440 506 29,000 -1,884 Descending Honolulu Center
Wed 02:36:55 AM 22.1833 -156.6667 228° Southwest 430 495 27,400 -1,700 Descending Honolulu Center
Wed 02:37:55 AM 22.1000 -156.7500 223° Southwest 430 495 25,600 -1,289 Descending Honolulu Center
Wed 02:38:56 AM 22.0167 -156.8500 228° Southwest 410 472 24,800 -793 Descending Honolulu Center
Wed 02:39:56 AM 21.9333 -156.9333 223° Southwest 420 483 24,000 -1,500 Descending Honolulu Center
Wed 02:40:56 AM 21.8500 -157.0167 223° Southwest 400 460 21,800 -2,182 Descending Honolulu Center
Wed 02:41:57 AM 21.7667 -157.1167 228° Southwest 390 449 19,600 -2,182 Descending Honolulu Center
Wed 02:42:57 AM 21.6833 -157.2000 223° Southwest 390 449 17,400 -2,150 Descending Honolulu Center
Wed 02:43:57 AM 21.6167 -157.2833 229° Southwest 380 437 15,300 -2,033 Descending Honolulu Center
Wed 02:44:58 AM 21.5333 -157.3667 223° Southwest 370 426 13,300 -2,033 Descending Honolulu Center
Wed 02:45:58 AM 21.4667 -157.4500 229° Southwest 360 414 11,200 -1,650 Descending Honolulu Center
Wed 02:46:58 AM 21.4000 -157.5333 229° Southwest 350 403 10,000 -843 Descending Honolulu Center
Wed 02:47:59 AM 21.3667 -157.6167 247° West 310 357 9,500 -992 Descending Honolulu Center
Wed 02:48:59 AM 21.3333 -157.7000 247° West 310 357 8,000 -1,500 Descending Honolulu Center

Login

Don't have an account? Register now (free) for customized features, flight alerts, and more!